Terminal Aerodrome Forecast
Issued by NWS

Current Version | Previous Version | Text Only | Print | Product List | Glossary On
Versions: 1 2 3 4 5 6 7 8 9 10 11 12 13 14 15 16 17 18 19
000
FTUS42 KKEY 212338
TAFMTH
TAF
KMTH 212338Z 2200/2224 13008KT P6SM FEW025 BKN035 BKN250
     FM221000 15011G17KT P6SM VCSH SCT020 SCT035 BKN250
     FM221500 20013G20KT 5SM SHRA VCTS SCT015 OVC030CB
     FM221900 27013G19KT P6SM VCSH SCT025 BKN050 OVC100
     FM222200 30009G17KT P6SM SCT030 BKN120=

USA.gov is the U.S. government's official web portal to all federal, state and local government web resources and services.